This is the latest recevied weather packets stored in our database for station/object KB9ZGZ. If no packets are shown the sender has not sent any weather packets the latest 10 day(s).
| Time | Temp. | Humidity | Pressure | Rain* | Wind** | Luminosity | Snow |
|---|---|---|---|---|---|---|---|
| 1777910445 | 20.56° C | 68% | 1000.2 hPa | 0 mm | - | - | - |
| 1777909539 | 19.44° C | 75% | 1000.3 hPa | 0 mm | - | - | - |
| 1777908640 | 17.78° C | 79% | 1000.3 hPa | 0 mm | - | - | - |
| 1777907738 | 16.67° C | 80% | 1000.3 hPa | 0 mm | - | - | - |
| 1777906837 | 15.56° C | 82% | 1000.3 hPa | 0 mm | - | - | - |
| 1777905936 | 15° C | 83% | 1000.1 hPa | 0 mm | - | - | - |
| 1777905035 | 15.56° C | 81% | 1000.4 hPa | 0 mm | - | - | - |
| 1777904133 | 16.11° C | 79% | 1000 hPa | 0 mm | - | - | - |
| 1777903231 | 17.78° C | 71% | 1000 hPa | 0 mm | - | - | - |
| 1777902340 | 17.22° C | 71% | 999.7 hPa | 0 mm | - | - | - |
| 1777901436 | 17.22° C | 72% | 999.9 hPa | 0 mm | - | - | - |
| 1777900529 | 16.67° C | 73% | 1000.6 hPa | 0 mm | - | - | - |
| 1777899626 | 16.11° C | 76% | 1000.7 hPa | 0 mm | - | - | - |
| 1777898725 | 16.11° C | 77% | 1001.5 hPa | 0 mm | - | - | - |
| 1777897831 | 16.11° C | 77% | 1001.6 hPa | 0 mm | - | - | - |
| 1777896924 | 15.56° C | 80% | 1001.3 hPa | 0 mm | - | - | - |
| 1777896028 | 15° C | 80% | 1000.9 hPa | 0 mm | - | - | - |
| 1777895122 | 15° C | 80% | 1001 hPa | 0 mm | - | - | - |
| 1777894221 | 15° C | 80% | 1001.2 hPa | 0 mm | - | - | - |
| 1777893321 | 15.56° C | 79% | 1001.1 hPa | 0 mm | - | - | - |
| 1777892417 | 15.56° C | 78% | 1001.5 hPa | 0 mm | - | - | - |
| 1777891518 | 15° C | 78% | 1001.5 hPa | 0 mm | - | - | - |
| 1777890625 | 14.44° C | 80% | 1001.9 hPa | 0 mm | - | - | - |
| 1777889719 | 15° C | 79% | 1002 hPa | 0 mm | - | - | - |
| 1777888814 | 15.56° C | 78% | 1001.9 hPa | 0 mm | - | - | - |
* Rain since midnight (hover to see other rain measurements)
** Current wind speed in m/s (hover to see current wind gust speed)